createdAt,value
2022-11-01T00:00:01.121Z,-52
2022-11-01T00:00:59.547Z,-51
2022-11-01T00:01:54.134Z,-51
2022-11-01T00:02:53.900Z,-51
2022-11-01T00:03:48.285Z,-50
2022-11-01T00:04:52.432Z,-51
2022-11-01T00:05:48.594Z,-51
2022-11-01T00:06:50.421Z,-52
2022-11-01T00:07:44.815Z,-51
2022-11-01T00:08:45.936Z,-51
2022-11-01T00:09:38.751Z,-51
2022-11-01T00:10:40.195Z,-50
2022-11-01T00:11:32.640Z,-51
2022-11-01T00:12:34.687Z,-52
2022-11-01T00:13:38.062Z,-51
2022-11-01T00:15:16.467Z,-53
2022-11-01T00:17:47.543Z,-52
2022-11-01T00:18:52.974Z,-51
2022-11-01T00:19:50.805Z,-50
2022-11-01T00:20:46.128Z,-51
2022-11-01T00:21:49.698Z,-51
2022-11-01T00:22:49.599Z,-53
2022-11-01T00:23:44.736Z,-51
2022-11-01T00:24:46.386Z,-51
2022-11-01T00:25:43.147Z,-51
2022-11-01T00:26:45.039Z,-51
2022-11-01T00:27:40.537Z,-51
2022-11-01T00:28:44.607Z,-52
2022-11-01T00:29:42.650Z,-51
2022-11-01T00:30:45.495Z,-51
2022-11-01T00:31:37.976Z,-50
2022-11-01T00:32:41.063Z,-51
2022-11-01T00:33:32.774Z,-51
2022-11-01T00:34:35.346Z,-53
2022-11-01T00:35:29.551Z,-51
2022-11-01T00:36:29.205Z,-51
2022-11-01T00:37:29.336Z,-52
2022-11-01T00:38:28.761Z,-52
2022-11-01T00:39:30.459Z,-51
2022-11-01T00:40:29.638Z,-51
2022-11-01T00:41:29.332Z,-53
2022-11-01T00:42:30.081Z,-51
2022-11-01T00:43:30.248Z,-51
2022-11-01T00:44:31.633Z,-51
2022-11-01T00:45:26.772Z,-51
2022-11-01T00:46:30.770Z,-51
2022-11-01T00:47:22.742Z,-51
2022-11-01T00:48:24.717Z,-51
2022-11-01T00:49:16.848Z,-51
2022-11-01T00:50:18.815Z,-53
2022-11-01T00:51:22.860Z,-51
2022-11-01T00:52:26.984Z,-51
2022-11-01T00:53:20.419Z,-51
2022-11-01T00:54:21.985Z,-51
2022-11-01T00:55:23.275Z,-52
2022-11-01T00:56:22.952Z,-52
2022-11-01T00:58:27.517Z,-52
2022-11-01T00:59:25.723Z,-53
2022-11-01T01:00:25.190Z,-53
2022-11-01T01:01:20.494Z,-51
2022-11-01T01:02:21.085Z,-53
2022-11-01T01:03:17.555Z,-52
2022-11-01T01:04:17.423Z,-54
2022-11-01T01:05:13.642Z,-53
2022-11-01T01:06:15.017Z,-51
2022-11-01T01:07:11.568Z,-51
2022-11-01T01:08:18.854Z,-53
2022-11-01T01:09:15.116Z,-52
2022-11-01T01:10:20.961Z,-52
2022-11-01T01:11:22.727Z,-53
2022-11-01T01:12:19.197Z,-51
2022-11-01T01:14:17.024Z,-52
2022-11-01T01:15:26.536Z,-51
2022-11-01T01:16:28.586Z,-51
2022-11-01T01:17:33.773Z,-52
2022-11-01T01:18:26.491Z,-50
2022-11-01T01:19:24.528Z,-51
2022-11-01T01:20:33.840Z,-52
2022-11-01T01:21:35.793Z,-51
2022-11-01T01:22:30.889Z,-52
2022-11-01T01:24:30.097Z,-51
2022-11-01T01:25:25.706Z,-53
2022-11-01T01:26:20.723Z,-51
2022-11-01T01:27:21.704Z,-53
2022-11-01T01:28:23.743Z,-51
2022-11-01T01:29:24.484Z,-51
2022-11-01T01:30:22.995Z,-51
2022-11-01T01:31:25.693Z,-52
2022-11-01T01:32:20.245Z,-51
2022-11-01T01:33:19.853Z,-52
2022-11-01T01:34:19.372Z,-51
2022-11-01T01:35:19.423Z,-53
2022-11-01T01:37:43.219Z,-52
2022-11-01T01:39:43.159Z,-51
2022-11-01T01:40:38.516Z,-52
2022-11-01T01:41:38.513Z,-52
2022-11-01T01:42:40.383Z,-51
2022-11-01T01:44:33.411Z,-52
2022-11-01T01:45:34.455Z,-51
2022-11-01T01:46:30.042Z,-53
2022-11-01T01:47:30.139Z,-51
2022-11-01T01:49:26.379Z,-53
2022-11-01T01:50:23.851Z,-51
2022-11-01T01:51:22.953Z,-53
2022-11-01T01:52:23.593Z,-52
2022-11-01T01:53:25.573Z,-51
2022-11-01T01:54:27.436Z,-51
2022-11-01T01:55:20.479Z,-51
2022-11-01T01:56:20.539Z,-51
2022-11-01T01:57:28.720Z,-50
2022-11-01T01:59:28.995Z,-51
2022-11-01T02:00:38.088Z,-52
2022-11-01T02:01:30.156Z,-51
2022-11-01T02:02:32.917Z,-52
2022-11-01T02:04:31.471Z,-51
2022-11-01T02:05:31.126Z,-52
2022-11-01T02:06:26.531Z,-53
2022-11-01T02:07:30.349Z,-50
2022-11-01T02:08:27.621Z,-51
2022-11-01T02:09:31.815Z,-51
2022-11-01T02:10:27.627Z,-51
2022-11-01T02:11:25.692Z,-51
2022-11-01T02:12:27.398Z,-52
2022-11-01T02:13:21.023Z,-51
2022-11-01T02:14:24.403Z,-54
2022-11-01T02:15:23.661Z,-51
2022-11-01T02:16:18.323Z,-51
2022-11-01T02:17:18.503Z,-54
2022-11-01T02:18:16.226Z,-51
2022-11-01T02:19:18.422Z,-51
2022-11-01T02:20:15.869Z,-52
2022-11-01T02:21:19.491Z,-52
2022-11-01T02:22:18.535Z,-52
2022-11-01T02:24:58.997Z,-53
2022-11-01T02:25:55.177Z,-52
2022-11-01T02:26:50.997Z,-51
2022-11-01T02:27:53.480Z,-53
2022-11-01T02:28:45.924Z,-52
2022-11-01T02:29:51.070Z,-53
2022-11-01T02:30:44.631Z,-51
2022-11-01T02:33:09.549Z,-52
2022-11-01T02:34:12.248Z,-53
2022-11-01T02:35:11.794Z,-52
2022-11-01T02:36:09.327Z,-51
2022-11-01T02:37:09.345Z,-53
2022-11-01T02:38:08.308Z,-51
2022-11-01T02:39:04.457Z,-51
2022-11-01T02:40:05.137Z,-51
2022-11-01T02:41:01.342Z,-52
2022-11-01T02:42:01.025Z,-52
2022-11-01T02:42:57.778Z,-51
2022-11-01T02:44:06.176Z,-53
2022-11-01T02:45:00.933Z,-51
2022-11-01T02:46:00.159Z,-51
2022-11-01T02:47:08.104Z,-51
2022-11-01T02:48:04.574Z,-51
2022-11-01T02:49:08.318Z,-51
2022-11-01T02:50:05.166Z,-51
2022-11-01T02:51:06.952Z,-50
2022-11-01T02:52:02.338Z,-51
2022-11-01T02:53:04.946Z,-51
2022-11-01T02:54:05.294Z,-51
2022-11-01T02:54:59.247Z,-50
2022-11-01T02:56:02.193Z,-53
2022-11-01T02:56:54.029Z,-50
2022-11-01T02:57:53.465Z,-51
2022-11-01T02:59:48.427Z,-53
2022-11-01T03:00:44.075Z,-51
2022-11-01T03:01:46.800Z,-53
2022-11-01T03:02:45.857Z,-51
2022-11-01T03:03:48.393Z,-50
2022-11-01T03:04:43.743Z,-50
2022-11-01T03:05:45.108Z,-51
2022-11-01T03:06:41.020Z,-52
2022-11-01T03:09:10.252Z,-52
2022-11-01T03:10:13.167Z,-52
2022-11-01T03:11:11.825Z,-51
2022-11-01T03:12:08.926Z,-51
2022-11-01T03:13:10.233Z,-52
2022-11-01T03:14:05.426Z,-50
2022-11-01T03:15:04.346Z,-51
2022-11-01T03:15:59.040Z,-52
2022-11-01T03:17:01.530Z,-53
2022-11-01T03:19:49.245Z,-53
2022-11-01T03:20:43.965Z,-51
2022-11-01T03:21:45.444Z,-51
2022-11-01T03:22:41.950Z,-51
2022-11-01T03:23:47.217Z,-52
2022-11-01T03:24:46.057Z,-53
2022-11-01T03:25:42.193Z,-51
2022-11-01T03:26:45.132Z,-52
2022-11-01T03:27:38.661Z,-51
2022-11-01T03:28:41.741Z,-50
2022-11-01T03:29:36.972Z,-51
2022-11-01T03:30:38.189Z,-51
2022-11-01T03:31:38.272Z,-51
2022-11-01T03:32:39.838Z,-51
2022-11-01T03:33:34.007Z,-52
2022-11-01T03:34:33.632Z,-52
2022-11-01T03:35:28.988Z,-51
2022-11-01T03:36:28.091Z,-52
2022-11-01T03:37:22.762Z,-51
2022-11-01T03:39:16.961Z,-51
2022-11-01T03:40:19.115Z,-52
2022-11-01T03:41:14.474Z,-53
2022-11-01T03:42:15.509Z,-51
2022-11-01T03:43:11.027Z,-51
2022-11-01T03:44:15.129Z,-52
2022-11-01T03:45:10.408Z,-50
2022-11-01T03:46:13.784Z,-51
2022-11-01T03:47:14.618Z,-51
2022-11-01T03:48:10.803Z,-51
2022-11-01T03:49:10.176Z,-52
2022-11-01T03:51:31.436Z,-52
2022-11-01T03:52:30.393Z,-51
2022-11-01T03:54:35.877Z,-51
2022-11-01T03:55:31.190Z,-51
2022-11-01T03:56:31.018Z,-51
2022-11-01T03:57:30.605Z,-53
2022-11-01T03:58:26.375Z,-55
2022-11-01T03:59:29.927Z,-54
2022-11-01T04:00:25.034Z,-53
2022-11-01T04:01:22.711Z,-55
2022-11-01T04:02:20.471Z,-55
2022-11-01T04:03:19.439Z,-56
2022-11-01T04:05:17.211Z,-55
2022-11-01T04:06:14.887Z,-55
2022-11-01T04:07:12.861Z,-55
2022-11-01T04:08:10.516Z,-55
2022-11-01T04:09:08.600Z,-54
2022-11-01T04:10:06.030Z,-54
2022-11-01T04:11:05.506Z,-55
2022-11-01T04:12:03.303Z,-55
2022-11-01T04:13:03.249Z,-54
2022-11-01T04:14:00.808Z,-55
2022-11-01T04:14:58.893Z,-54
2022-11-01T04:15:57.532Z,-56
2022-11-01T04:16:55.482Z,-54
2022-11-01T04:17:52.849Z,-56
2022-11-01T04:19:55.724Z,-55
2022-11-01T04:20:57.118Z,-53
2022-11-01T04:22:01.630Z,-55
2022-11-01T04:23:00.373Z,-55
2022-11-01T04:24:59.389Z,-55
2022-11-01T04:25:58.169Z,-56
2022-11-01T04:26:58.452Z,-55
2022-11-01T04:30:12.289Z,-53
2022-11-01T04:31:16.827Z,-53
2022-11-01T04:32:16.528Z,-53
2022-11-01T04:33:19.683Z,-53
2022-11-01T04:34:21.741Z,-55
2022-11-01T04:35:18.561Z,-53
2022-11-01T04:36:19.537Z,-56
2022-11-01T04:37:15.316Z,-53
2022-11-01T04:40:53.691Z,-56
2022-11-01T04:41:52.886Z,-54
2022-11-01T08:20:22.142Z,-53
2022-11-01T08:21:20.515Z,-53
2022-11-01T08:22:14.116Z,-53
2022-11-01T08:23:13.273Z,-53
2022-11-01T08:24:06.741Z,-53
2022-11-01T08:25:03.780Z,-53
2022-11-01T08:26:01.345Z,-54
2022-11-01T08:26:55.714Z,-53
2022-11-01T08:27:51.985Z,-53
2022-11-01T08:29:42.820Z,-52
2022-11-01T08:30:39.129Z,-54
2022-11-01T08:31:31.990Z,-52
2022-11-01T08:32:32.094Z,-53
2022-11-01T17:10:08.365Z,-53
2022-11-01T17:11:04.632Z,-52
2022-11-01T17:12:04.658Z,-53
2022-11-01T17:12:59.942Z,-52
2022-11-01T21:06:06.183Z,-52
2022-11-01T21:07:05.955Z,-53
2022-11-01T21:08:04.003Z,-56
2022-11-01T21:08:56.792Z,-54
2022-11-01T21:10:01.581Z,-54
2022-11-01T21:10:55.074Z,-53
2022-11-01T21:11:51.838Z,-52
2022-11-01T21:12:44.459Z,-52
2022-11-01T21:13:42.046Z,-53
2022-11-01T21:15:29.506Z,-52
2022-11-01T21:16:23.855Z,-53
2022-11-01T21:17:20.515Z,-53
2022-11-01T21:18:14.825Z,-52
2022-11-01T21:19:15.783Z,-55
2022-11-01T21:21:00.510Z,-54
2022-11-01T21:22:00.962Z,-53
2022-11-01T21:22:54.502Z,-54
2022-11-01T21:23:53.384Z,-55
2022-11-01T21:25:44.652Z,-53
2022-11-01T21:26:41.930Z,-55
2022-11-01T21:27:46.852Z,-54
2022-11-01T21:28:48.500Z,-53
2022-11-01T21:30:49.060Z,-52
2022-11-01T21:31:39.550Z,-52
2022-11-01T21:32:38.654Z,-53
2022-11-01T21:33:31.685Z,-52
2022-11-01T21:35:29.394Z,-52
2022-11-01T21:36:18.991Z,-52
2022-11-01T21:37:17.722Z,-52
2022-11-01T21:38:11.117Z,-52
2022-11-01T21:39:11.104Z,-52
2022-11-01T21:43:09.739Z,-52
2022-11-01T21:44:07.727Z,-52
2022-11-01T21:45:06.331Z,-54
2022-11-01T21:46:02.179Z,-52
2022-11-01T21:47:04.392Z,-54
2022-11-01T21:47:58.811Z,-54
2022-11-01T21:48:58.156Z,-53
2022-11-01T21:50:56.938Z,-54
2022-11-01T21:51:52.026Z,-52
2022-11-01T21:52:52.796Z,-53
2022-11-01T21:53:48.124Z,-52
2022-11-01T21:54:47.793Z,-53
2022-11-01T21:55:42.317Z,-54
2022-11-01T21:56:51.118Z,-54
2022-11-01T21:57:50.307Z,-54
2022-11-01T21:58:50.003Z,-54
2022-11-01T22:01:52.928Z,-53
2022-11-01T22:02:47.174Z,-49
2022-11-01T22:03:49.341Z,-48
2022-11-01T22:05:51.998Z,-49
2022-11-01T22:06:49.544Z,-50
2022-11-01T22:07:48.802Z,-51
2022-11-01T22:08:43.876Z,-50
2022-11-01T22:10:39.904Z,-49
2022-11-01T22:11:36.530Z,-49
2022-11-01T22:12:35.523Z,-50
2022-11-01T22:13:35.059Z,-50
2022-11-01T22:14:26.663Z,-48
2022-11-01T22:15:34.995Z,-53
2022-11-01T22:16:38.056Z,-52
2022-11-01T22:17:39.499Z,-54
2022-11-01T22:18:35.192Z,-51
2022-11-01T22:19:34.793Z,-53
2022-11-01T22:20:31.075Z,-53
2022-11-01T22:21:34.875Z,-52
2022-11-01T22:22:36.550Z,-54
2022-11-01T22:23:39.362Z,-54
2022-11-01T22:25:32.276Z,-52
2022-11-01T22:26:28.412Z,-52
2022-11-01T22:27:29.402Z,-54
2022-11-01T22:28:23.813Z,-52
2022-11-01T22:29:23.261Z,-54
2022-11-01T22:31:22.209Z,-54
2022-11-01T22:32:19.310Z,-51
2022-11-01T22:33:23.000Z,-54
2022-11-01T22:34:14.643Z,-53
2022-11-01T22:36:38.041Z,-49
2022-11-01T22:37:38.880Z,-51
2022-11-01T22:38:37.227Z,-50
2022-11-01T22:40:48.927Z,-50
2022-11-01T22:41:43.529Z,-50
2022-11-01T22:42:42.601Z,-50
2022-11-01T22:43:38.336Z,-49
2022-11-01T22:44:40.359Z,-49
2022-11-01T22:45:37.060Z,-49
2022-11-01T22:46:37.575Z,-51
2022-11-01T22:47:32.348Z,-49
2022-11-01T22:48:29.256Z,-51
2022-11-01T22:49:28.997Z,-51
2022-11-01T22:52:40.307Z,-51
2022-11-01T22:53:41.532Z,-51
2022-11-01T22:54:43.263Z,-49
2022-11-01T22:55:46.084Z,-52
2022-11-01T23:06:18.030Z,-48
2022-11-01T23:09:32.808Z,-51
2022-11-01T23:15:29.896Z,-51
2022-11-01T23:20:31.691Z,-50
2022-11-01T23:21:29.900Z,-49
2022-11-01T23:22:29.746Z,-49
2022-11-01T23:23:25.920Z,-50
2022-11-01T23:24:27.645Z,-49
2022-11-01T23:25:22.172Z,-50
2022-11-01T23:26:21.061Z,-51
2022-11-01T23:27:17.341Z,-50
2022-11-01T23:28:17.118Z,-50
2022-11-01T23:29:13.097Z,-49
2022-11-01T23:30:16.155Z,-50
2022-11-01T23:31:12.479Z,-50
2022-11-01T23:32:17.264Z,-49
2022-11-01T23:33:11.655Z,-51
2022-11-01T23:34:16.927Z,-51
